Weather observations for the past three days for
Logan County Airport
| Date | Time (edt) | Wind (kph) | Vis. (km) | Weather | Sky Cond. | Temperature (ºC) | Relative Humidity | Wind Chill (°C) | Heat Index (°C) | Pressure | Precipitation (cm) | ||||||
|---|---|---|---|---|---|---|---|---|---|---|---|---|---|---|---|---|---|
| Air | Dwpt | 6 hour | altimeter (cm) | sea level (mb) | 1 hr | 3 hr | 6 hr | ||||||||||
| Max. | Min. | ||||||||||||||||
| 09 | 13:55 | Vrbl 7 | 16.09 | Mostly Cloudy | SCT039 SCT045 BKN075 | 18 | 9 | 56% | 75.82 | 0.0 | |||||||
| 09 | 13:35 | W 11 | 16.09 | Mostly Cloudy | SCT039 BKN080 BKN095 | 18 | 9 | 56% | 75.84 | 0.0 | |||||||
| 09 | 13:15 | Vrbl 9 | 16.09 | Partly Cloudy | SCT090 | 18 | 9 | 56% | 75.84 | 0.0 | |||||||
| 09 | 12:55 | Vrbl 11 | 16.09 | Mostly Cloudy | BKN080 | 17 | 9 | 60% | 75.87 | 0.0 | |||||||
| 09 | 12:35 | Vrbl 9 G 26 | 16.09 | Mostly Cloudy | BKN085 | 17 | 9 | 60% | 75.87 | 0.0 | |||||||
| 09 | 12:15 | Vrbl 9 | 16.09 | Mostly Cloudy | BKN095 | 16 | 9 | 63% | 75.87 | 0.0 | |||||||
| 09 | 11:55 | Vrbl 6 | 16.09 | Mostly Cloudy | BKN095 BKN120 | 16 | 8 | 59% | 75.87 | 0.0 | |||||||
| 09 | 11:35 | S 7 | 12.87 | A Few Clouds | FEW120 | 15 | 9 | 68% | 75.84 | 0.0 | |||||||
| 09 | 11:15 | S 9 | 16.09 | Partly Cloudy | SCT110 | 15 | 9 | 68% | 75.84 | 0.0 | |||||||
| 09 | 10:55 | Calm | 16.09 | Mostly Cloudy | BKN110 | 15 | 9 | 68% | 75.84 | 0.0 | |||||||
| 09 | 10:35 | Vrbl 7 | 16.09 | Partly Cloudy | SCT110 | 15 | 8 | 63% | 75.87 | 0.0 | |||||||
| 09 | 10:15 | Calm | 16.09 | Partly Cloudy | SCT110 | 15 | 8 | 63% | 75.84 | 0.0 | |||||||
| 09 | 09:55 | Vrbl 7 | 16.09 | A Few Clouds | FEW120 | 15 | 8 | 63% | 75.82 | 0.0 | |||||||
| 09 | 09:35 | S 9 | 16.09 | A Few Clouds | FEW120 | 15 | 7 | 59% | 75.82 | 0.0 | |||||||
| 09 | 09:15 | Vrbl 7 | 16.09 | Fair | CLR | 14 | 7 | 63% | 75.82 | 0.0 | |||||||
| 09 | 08:55 | Calm | 16.09 | Fair | CLR | 13 | 7 | 67% | 75.79 | 0.0 | |||||||
| 09 | 08:35 | Vrbl 6 | 16.09 | Fair | CLR | 12 | 6 | 67% | 75.82 | 0.0 | |||||||
| 09 | 08:15 | Calm | 16.09 | Fair | CLR | 12 | 6 | 67% | 75.82 | 0.0 | |||||||
| 09 | 07:55 | S 6 | 16.09 | Fair | CLR | 11 | 5 | 67% | 75.84 | 0.0 | |||||||
| 09 | 07:35 | S 6 | 16.09 | Fair | CLR | 11 | 5 | 67% | 75.84 | 0.0 | |||||||
| 09 | 07:15 | S 6 | 16.09 | Fair | CLR | 11 | 4 | 62% | 75.84 | 0.0 | |||||||
| 09 | 06:55 | S 6 | 16.09 | Fair | CLR | 11 | 4 | 62% | 75.84 | 0.0 | |||||||
| 09 | 06:35 | S 6 | 16.09 | A Few Clouds | FEW120 | 11 | 3 | 58% | 75.84 | 0.0 | |||||||
| 09 | 06:15 | S 6 | 16.09 | Mostly Cloudy | BKN110 | 11 | 3 | 58% | 75.84 | 0.0 | |||||||
| 09 | 05:55 | S 6 | 16.09 | Overcast | OVC110 | 11 | 3 | 58% | 75.82 | 0.0 | |||||||
| 09 | 05:35 | S 7 | 16.09 | Overcast | OVC110 | 11 | 3 | 58% | 75.82 | 0.0 | |||||||
| 09 | 05:15 | S 6 | 16.09 | Mostly Cloudy | BKN110 | 12 | 3 | 54% | 75.82 | 0.0 | |||||||
| 09 | 04:55 | S 6 | 16.09 | Mostly Cloudy | BKN100 | 11 | 2 | 54% | 75.84 | 0.0 | |||||||
| 09 | 04:35 | Calm | 16.09 | Overcast | OVC100 | 12 | 2 | 51% | 75.84 | 0.0 | |||||||
| 09 | 04:15 | Calm | 16.09 | Overcast | OVC100 | 12 | 2 | 51% | 75.84 | 0.0 | |||||||
| 09 | 03:55 | Calm | 16.09 | Partly Cloudy | SCT100 | 12 | 2 | 51% | 75.84 | 0.0 | |||||||
| 09 | 03:35 | Calm | 16.09 | Fair | CLR | 12 | 2 | 51% | 75.84 | 0.0 | |||||||
| 09 | 03:15 | Calm | 16.09 | Fair | CLR | 12 | 2 | 51% | 75.84 | 0.0 | |||||||
| 09 | 02:55 | S 6 | 16.09 | Fair | CLR | 12 | 2 | 51% | 75.87 | 0.0 | |||||||
| 09 | 02:35 | S 6 | 16.09 | A Few Clouds | FEW110 | 12 | 2 | 51% | 75.84 | 0.0 | |||||||
| 09 | 02:15 | Calm | 16.09 | A Few Clouds | FEW110 | 12 | 2 | 51% | 75.87 | 0.0 | |||||||
| 09 | 01:55 | S 6 | 16.09 | Fair | CLR | 12 | 2 | 51% | 75.87 | 0.0 | |||||||
| 09 | 01:35 | S 7 | 16.09 | Fair | CLR | 13 | 1 | 44% | 75.9 | 0.0 | |||||||
| 09 | 01:15 | Calm | 16.09 | Fair | CLR | 13 | 1 | 44% | 75.9 | 0.0 | |||||||
| 09 | 00:55 | Calm | 16.09 | A Few Clouds | FEW100 | 13 | 2 | 47% | 75.9 | 0.0 | |||||||
| 09 | 00:35 | S 6 | 16.09 | A Few Clouds | FEW100 | 13 | 2 | 47% | 75.9 | 0.0 | |||||||
| 09 | 00:15 | Calm | 16.09 | A Few Clouds | FEW100 | 13 | 2 | 47% | 75.9 | 0.0 | |||||||
| 08 | 23:55 | Calm | 16.09 | A Few Clouds | FEW120 | 13 | 3 | 51% | 75.92 | 0.0 | |||||||
| 08 | 23:35 | Calm | 16.09 | Fair | CLR | 14 | 2 | 44% | 75.92 | 0.0 | |||||||
| 08 | 23:15 | Calm | 16.09 | A Few Clouds | FEW100 FEW120 | 14 | 2 | 44% | 75.92 | 0.0 | |||||||
| 08 | 22:55 | Calm | 16.09 | Partly Cloudy | SCT100 | 14 | 2 | 44% | 75.92 | 0.0 | |||||||
| 08 | 22:35 | Calm | 16.09 | Partly Cloudy | SCT100 | 14 | 3 | 48% | 75.95 | 0.0 | |||||||
| 08 | 22:15 | Calm | 16.09 | A Few Clouds | FEW120 | 15 | 2 | 42% | 75.95 | 0.0 | |||||||
| 08 | 21:55 | Calm | 16.09 | Mostly Cloudy | BKN120 | 15 | 2 | 42% | 75.92 | 0.0 | |||||||
| 08 | 21:35 | Calm | 16.09 | A Few Clouds | FEW120 | 16 | 2 | 39% | 75.92 | 0.0 | |||||||
| 08 | 21:15 | S 6 | 16.09 | Fair | CLR | 16 | 1 | 36% | 75.92 | 0.0 | |||||||
| 08 | 20:55 | Calm | 16.09 | Fair | CLR | 16 | 1 | 36% | 75.9 | 0.0 | |||||||
| 08 | 20:35 | S 6 | 16.09 | Fair | CLR | 17 | 1 | 34% | 75.9 | 0.0 | |||||||
| 08 | 20:15 | Vrbl 6 | 16.09 | Fair | CLR | 17 | 2 | 37% | 75.9 | 0.0 | |||||||
| 08 | 19:55 | Vrbl 9 | 16.09 | Fair | CLR | 17 | 2 | 37% | 75.92 | 0.0 | |||||||
| 08 | 19:35 | SW 7 | 16.09 | Fair | CLR | 18 | 2 | 34% | 75.95 | 0.0 | |||||||
| 08 | 19:15 | SW 9 | 16.09 | Fair | CLR | 18 | 2 | 34% | 75.95 | 0.0 | |||||||
| 08 | 18:55 | SW 7 | 16.09 | Fair | CLR | 19 | 1 | 30% | 75.92 | 0.0 | |||||||
| 08 | 18:35 | Vrbl 7 | 16.09 | Fair | CLR | 19 | 1 | 30% | 75.92 | 0.0 | |||||||
| 08 | 18:15 | S 11 G 20 | 16.09 | Fair | CLR | 19 | 1 | 30% | 75.92 | 0.0 | |||||||
| 08 | 17:55 | Vrbl 9 G 24 | 16.09 | Fair | CLR | 19 | 1 | 30% | 75.92 | 0.0 | |||||||
| 08 | 17:35 | S 11 G 22 | 16.09 | Fair | CLR | 19 | 1 | 30% | 75.92 | 0.0 | |||||||
| 08 | 17:15 | Vrbl 9 G 19 | 16.09 | Fair | CLR | 19 | 2 | 32% | 75.95 | 0.0 | |||||||
| 08 | 16:55 | Vrbl 9 | 16.09 | Fair | CLR | 19 | 3 | 35% | 75.97 | 0.0 | |||||||
| 08 | 16:35 | S 9 G 26 | 16.09 | Fair | CLR | 19 | 2 | 32% | 76 | 0.0 | |||||||
| 08 | 16:15 | Vrbl 9 | 16.09 | Fair | CLR | 18 | 3 | 37% | 76.02 | 0.0 | |||||||
| 08 | 15:55 | SW 11 | 16.09 | A Few Clouds | FEW065 | 19 | 4 | 37% | 76.05 | 0.0 | |||||||
| 08 | 15:35 | Calm | 16.09 | A Few Clouds | FEW065 | 19 | 3 | 35% | 76.07 | 0.0 | |||||||
| 08 | 15:15 | Vrbl 9 G 22 | 16.09 | Fair | CLR | 18 | 3 | 37% | 76.1 | 0.0 | |||||||
| 08 | 14:55 | Calm | 16.09 | Fair | CLR | 18 | 2 | 34% | 76.12 | 0.0 | |||||||
| 08 | 14:35 | Calm | 16.09 | Fair | CLR | 18 | 2 | 34% | 76.12 | 0.0 | |||||||
| 08 | 14:15 | W 9 | 16.09 | Fair | CLR | 17 | 2 | 37% | 76.15 | 0.0 | |||||||
| 08 | 13:55 | Vrbl 6 G 19 | 16.09 | Fair | CLR | 18 | 3 | 37% | 76.17 | 0.0 | |||||||
| 08 | 13:35 | Vrbl 7 | 16.09 | Fair | CLR | 17 | 2 | 37% | 76.2 | 0.0 | |||||||
| 08 | 13:15 | Vrbl 11 | 16.09 | Fair | CLR | 17 | 2 | 37% | 76.23 | 0.0 | |||||||
| 08 | 12:55 | W 19 | 16.09 | Fair | CLR | 17 | 3 | 39% | 76.25 | 0.0 | |||||||
| 08 | 12:35 | Vrbl 11 | 16.09 | Fair | CLR | 17 | 3 | 39% | 76.28 | 0.0 | |||||||
| 08 | 12:15 | Vrbl 6 | 16.09 | Fair | CLR | 16 | 3 | 42% | 76.3 | 0.0 | |||||||
| 08 | 11:55 | Calm | 16.09 | Fair | CLR | 15 | 4 | 48% | 76.3 | 0.0 | |||||||
| 08 | 11:35 | Vrbl 9 G 19 | 16.09 | Fair | CLR | 15 | 3 | 45% | 76.3 | 0.0 | |||||||
| 08 | 11:15 | Calm | 16.09 | Fair | CLR | 14 | 2 | 44% | 76.3 | 0.0 | |||||||
| 08 | 10:55 | Vrbl 7 | 16.09 | Fair | CLR | 14 | 3 | 48% | 76.3 | 0.0 | |||||||
| 08 | 10:35 | S 7 | 16.09 | Fair | CLR | 13 | 3 | 51% | 76.3 | 0.0 | |||||||
| 08 | 10:15 | S 9 | 16.09 | Fair | CLR | 12 | 4 | 58% | 76.3 | 0.0 | |||||||
| 08 | 09:55 | Calm | 16.09 | Fair | CLR | 11 | 4 | 62% | 76.33 | 0.0 | |||||||
| 08 | 09:35 | Calm | 16.09 | Fair | CLR | 11 | 4 | 62% | 76.33 | 0.0 | |||||||
| 08 | 09:15 | Calm | 16.09 | Fair | CLR | 10 | 4 | 67% | 76.33 | 0.0 | |||||||
| 08 | 08:55 | S 9 | 16.09 | Fair | CLR | 9 | 4 | 71% | 8 | 76.33 | 0.0 | ||||||
| 08 | 08:35 | Vrbl 6 | 16.09 | Fair | CLR | 8 | 4 | 76% | 76.33 | 0.0 | |||||||
| 08 | 08:15 | Calm | 16.09 | Fair | CLR | 7 | 3 | 76% | 76.33 | 0.0 | |||||||
| 08 | 07:55 | Calm | 16.09 | Fair | CLR | 6 | 4 | 87% | 76.3 | 0.0 | |||||||
| 08 | 07:35 | Calm | 16.09 | Fair | CLR | 5 | 4 | 93% | 76.3 | 0.0 | |||||||
| 08 | 07:15 | Calm | 16.09 | Fair | CLR | 4 | 3 | 93% | 76.28 | 0.0 | |||||||
| 08 | 06:55 | Calm | 14.48 | Fair | CLR | 3 | 3 | 100% | 76.25 | 0.0 | |||||||
| 08 | 06:35 | Calm | 16.09 | Fair | CLR | 3 | 3 | 100% | 76.25 | 0.0 | |||||||
| 08 | 06:15 | Calm | 16.09 | Fair | CLR | 3 | 3 | 100% | 76.25 | 0.0 | |||||||
| 08 | 05:55 | Calm | 11.27 | Fair | CLR | 3 | 3 | 100% | 76.25 | 0.0 | |||||||
| 08 | 05:35 | Calm | 16.09 | Fair | CLR | 3 | 3 | 100% | 76.23 | 0.0 | |||||||
| 08 | 05:15 | Calm | 16.09 | Fair | CLR | 4 | 3 | 93% | 76.23 | 0.0 | |||||||
| 08 | 04:55 | Calm | 16.09 | Fair | CLR | 4 | 3 | 93% | 76.23 | 0.0 | |||||||
| 08 | 04:35 | Calm | 16.09 | Fair | CLR | 4 | 3 | 93% | 76.2 | 0.0 | |||||||
| 08 | 04:15 | Calm | 16.09 | Fair | CLR | 4 | 3 | 93% | 76.2 | 0.0 | |||||||
| 08 | 03:55 | Calm | 16.09 | Fair | CLR | 4 | 2 | 87% | 76.23 | 0.0 | |||||||
| 08 | 03:35 | Calm | 16.09 | Fair | CLR | 5 | 2 | 81% | 76.2 | 0.0 | |||||||
| 08 | 03:15 | Calm | 16.09 | Fair | CLR | 5 | 3 | 87% | 76.2 | 0.0 | |||||||
| 08 | 02:55 | Calm | 16.09 | Fair | CLR | 5 | 2 | 81% | 76.2 | 0.0 | |||||||
| 08 | 02:35 | Calm | 16.09 | Fair | CLR | 6 | 2 | 76% | 76.2 | 0.0 | |||||||
| 08 | 02:15 | Calm | 16.09 | Fair | CLR | 6 | 1 | 71% | 76.23 | 0.0 | |||||||
| 08 | 01:55 | Calm | 16.09 | Fair | CLR | 7 | 1 | 66% | 76.23 | 0.0 | |||||||
| 08 | 01:35 | Calm | 16.09 | Fair | CLR | 7 | 1 | 66% | 76.2 | 0.0 | |||||||
| 08 | 01:15 | Calm | 16.09 | Fair | CLR | 8 | 0 | 57% | 76.2 | 0.0 | |||||||
| 08 | 00:55 | Calm | 16.09 | Fair | CLR | 9 | 0 | 54% | 76.2 | 0.0 | |||||||
| 08 | 00:35 | Calm | 16.09 | Fair | CLR | 8 | 0 | 57% | 76.2 | 0.0 | |||||||
| 08 | 00:15 | Calm | 16.09 | Fair | CLR | 9 | -1 | 50% | 76.2 | 0.0 | |||||||
| 07 | 23:55 | NW 6 | 16.09 | Fair | CLR | 9 | -1 | 50% | 76.2 | 0.0 | |||||||
| 07 | 23:35 | Calm | 16.09 | Fair | CLR | 9 | -1 | 50% | 76.17 | 0.0 | |||||||
| 07 | 23:15 | Calm | 16.09 | Fair | CLR | 10 | 0 | 50% | 76.17 | 0.0 | |||||||
| 07 | 22:55 | Calm | 16.09 | Fair | CLR | 10 | 0 | 50% | 76.17 | 0.0 | |||||||
| 07 | 22:35 | NW 6 | 16.09 | Fair | CLR | 11 | -1 | 44% | 76.15 | 0.0 | |||||||
| 07 | 22:15 | NW 7 | 16.09 | Fair | CLR | 11 | -1 | 44% | 76.12 | 0.0 | |||||||
| 07 | 21:55 | NW 11 | 16.09 | Fair | CLR | 11 | -1 | 44% | 76.1 | 0.0 | |||||||
| 07 | 21:35 | NW 9 | 16.09 | Fair | CLR | 12 | 0 | 44% | 76.07 | 0.0 | |||||||
| 07 | 21:15 | NW 9 | 16.09 | Fair | CLR | 12 | 0 | 44% | 76.07 | 0.0 | |||||||
| 07 | 20:55 | NW 9 | 16.09 | A Few Clouds | FEW060 | 12 | 1 | 47% | 76.05 | 0.0 | |||||||
| 07 | 20:35 | NW 7 | 16.09 | A Few Clouds | FEW060 | 13 | 1 | 44% | 76.05 | 0.0 | |||||||
| 07 | 20:15 | W 13 | 16.09 | A Few Clouds | FEW060 | 13 | 1 | 44% | 76.02 | 0.0 | |||||||
| 07 | 19:55 | NW 9 | 16.09 | Mostly Cloudy | BKN060 | 14 | 2 | 44% | 76 | 0.0 | |||||||
| 07 | 19:35 | NW 7 | 16.09 | Fair | CLR | 14 | 1 | 41% | 75.97 | 0.0 | |||||||
| 07 | 19:15 | W 17 G 26 | 16.09 | Fair | CLR | 14 | 2 | 44% | 76 | 0.0 | |||||||
| 07 | 18:55 | W 15 | 16.09 | Partly Cloudy | SCT060 | 14 | 2 | 44% | 75.97 | 0.0 | |||||||
| 07 | 18:35 | Vrbl 11 | 16.09 | Mostly Cloudy | BKN055 BKN065 | 15 | 3 | 45% | 75.97 | 0.0 | |||||||
| 07 | 18:15 | NW 15 | 16.09 | Mostly Cloudy | BKN060 BKN070 | 15 | 3 | 45% | 75.95 | 0.0 | |||||||
| 07 | 17:55 | NW 13 | 16.09 | Mostly Cloudy | SCT055 BKN065 | 14 | 3 | 48% | 75.95 | 0.0 | |||||||
| 07 | 17:35 | N 15 | 16.09 | Mostly Cloudy | SCT050 BKN065 BKN075 | 16 | 4 | 45% | 75.92 | 0.0 | |||||||
| 07 | 17:15 | NW 13 | 16.09 | Mostly Cloudy | SCT050 BKN060 | 14 | 5 | 55% | 75.92 | 0.0 | |||||||
| 07 | 16:35 | W 13 | 16.09 | A Few Clouds | FEW055 | 14 | 4 | 51% | 75.92 | 0.0 | |||||||
| 07 | 16:15 | Vrbl 9 | 16.09 | Mostly Cloudy | BKN055 | 14 | 5 | 55% | 75.92 | 0.0 | |||||||
| 07 | 15:55 | W 13 G 22 | 16.09 | Partly Cloudy | SCT055 | 15 | 5 | 51% | 75.95 | 0.0 | |||||||
| 07 | 15:35 | SW 13 | 16.09 | Partly Cloudy | FEW042 SCT055 | 14 | 5 | 55% | 75.95 | 0.0 | |||||||
| 07 | 15:15 | Vrbl 9 | 16.09 | Partly Cloudy | SCT042 SCT050 | 14 | 5 | 55% | 75.97 | 0.0 | |||||||
| 07 | 14:55 | SW 9 | 12.87 | Partly Cloudy | FEW039 SCT044 SCT050 | 14 | 5 | 55% | 75.97 | 0.0 | |||||||
| 07 | 14:35 | W 9 | 16.09 | Partly Cloudy | FEW036 SCT048 | 14 | 5 | 55% | 76 | 0.0 | |||||||
| 07 | 14:15 | Vrbl 7 | 16.09 | Mostly Cloudy | SCT038 BKN047 | 13 | 5 | 59% | 76 | 0.0 | |||||||
| 07 | 13:55 | W 11 G 20 | 16.09 | Mostly Cloudy | FEW036 BKN046 | 13 | 5 | 59% | 76.02 | 0.0 | |||||||
| 07 | 13:35 | Vrbl 7 | 16.09 | Overcast | SCT037 OVC043 | 13 | 5 | 59% | 76.02 | 0.0 | |||||||
| 07 | 13:15 | NW 13 | 16.09 | Overcast | FEW036 OVC044 | 13 | 5 | 59% | 76.02 | 0.0 | |||||||
| 07 | 12:55 | Vrbl 6 | 16.09 | Overcast | BKN034 OVC043 | 12 | 5 | 63% | 76.05 | 0.0 | |||||||
| 07 | 12:35 | NW 7 | 16.09 | Overcast | BKN034 OVC044 | 12 | 5 | 63% | 76.05 | 0.0 | |||||||
| 07 | 12:15 | Calm | 16.09 | Overcast | BKN034 OVC045 | 13 | 5 | 59% | 76.05 | 0.0 | |||||||
| 07 | 11:55 | Vrbl 7 | 16.09 | Overcast | BKN034 OVC050 | 12 | 4 | 58% | 76.05 | 0.0 | |||||||
| 07 | 11:35 | N 9 | 16.09 | Overcast | OVC050 | 12 | 5 | 63% | 76.05 | 0.0 | |||||||
| 07 | 11:15 | N 11 | 16.09 | Overcast | OVC050 | 12 | 4 | 58% | 76.05 | 0.0 | |||||||
| 07 | 10:55 | Calm | 16.09 | Overcast | OVC049 | 12 | 5 | 63% | 76.07 | 0.0 | |||||||
| 07 | 10:35 | NE 9 | 16.09 | Overcast | OVC048 | 11 | 5 | 67% | 76.07 | 0.0 | |||||||
| 07 | 10:15 | NE 7 | 16.09 | Overcast | BKN048 OVC055 | 11 | 5 | 67% | 76.07 | 0.0 | |||||||
| 07 | 09:55 | Vrbl 11 | 16.09 | Overcast | BKN050 OVC055 | 10 | 4 | 67% | 9 | 76.07 | 0.0 | ||||||
| 07 | 09:35 | N 7 | 16.09 | Overcast | OVC047 | 10 | 5 | 71% | 9 | 76.07 | 0.0 | ||||||
| 07 | 09:15 | N 7 | 16.09 | Overcast | OVC045 | 10 | 7 | 82% | 9 | 76.1 | 0.0 | ||||||
| 07 | 08:55 | Calm | 16.09 | Overcast | OVC044 | 9 | 7 | 87% | 76.1 | 0.0 | |||||||
| 07 | 08:35 | Calm | 16.09 | Overcast | OVC042 | 10 | 7 | 82% | 76.1 | 0.0 | |||||||
| 07 | 08:15 | NE 6 | 16.09 | Overcast | OVC041 | 9 | 7 | 87% | 76.1 | 0.0 | |||||||
| 07 | 07:55 | Calm | 16.09 | Overcast | OVC039 | 9 | 7 | 87% | 76.07 | 0.0 | |||||||
| 07 | 07:35 | Calm | 16.09 | Overcast | OVC037 | 9 | 8 | 94% | 76.07 | 0.0 | |||||||
| 07 | 07:15 | Calm | 16.09 | Overcast | OVC036 | 9 | 7 | 87% | 76.07 | 0.0 | |||||||
| 07 | 06:55 | Calm | 16.09 | Overcast | OVC035 | 9 | 7 | 87% | 76.05 | 0.0 | |||||||
| 07 | 06:35 | Calm | 16.09 | Overcast | OVC034 | 9 | 7 | 87% | 76.05 | 0.0 | |||||||
| 07 | 06:15 | Calm | 16.09 | Overcast | OVC032 | 9 | 8 | 94% | 76.02 | 0.0 | |||||||
| 07 | 05:55 | Calm | 16.09 | Overcast | OVC030 | 9 | 8 | 94% | 76.02 | 0.0 | |||||||
| 07 | 05:35 | N 7 | 16.09 | Overcast | OVC027 | 9 | 7 | 87% | 8 | 76.02 | 0.0 | ||||||
| 07 | 05:15 | Calm | 16.09 | Overcast | OVC027 | 9 | 7 | 87% | 76.02 | 0.0 | |||||||
| 07 | 04:55 | Calm | 16.09 | Overcast | OVC027 | 9 | 8 | 94% | 76.05 | 0.0 | |||||||
| 07 | 04:35 | Calm | 16.09 | Overcast | OVC027 | 9 | 8 | 94% | 76.02 | 0.0 | |||||||
| 07 | 04:15 | Calm | 16.09 | Overcast | OVC027 | 9 | 8 | 94% | 76 | 0.0 | |||||||
| 07 | 03:55 | Calm | 16.09 | Overcast | OVC029 | 9 | 8 | 94% | 76.05 | 0.0 | |||||||
| 07 | 03:35 | Calm | 16.09 | Overcast | OVC028 | 9 | 8 | 94% | 76.05 | 0.0 | |||||||
| 07 | 03:15 | Calm | 16.09 | Overcast | OVC027 | 9 | 8 | 94% | 76.02 | 0.0 | |||||||
| 07 | 02:55 | Calm | 16.09 | Overcast | OVC024 | 9 | 8 | 94% | 76.02 | 0.0 | |||||||
| 07 | 02:35 | N 7 | 16.09 | Overcast | FEW010 OVC022 | 10 | 9 | 94% | 9 | 76.02 | 0.0 | ||||||
| 07 | 02:15 | Calm | 11.27 | Overcast | SCT004 BKN010 OVC019 | 9 | 9 | 100% | 76.05 | 0.0 | |||||||
| 07 | 01:55 | N 9 | 4.02 | Light Rain | BKN006 OVC012 | 10 | 10 | 100% | 9 | 76.05 | 0.0 | ||||||
| 07 | 01:35 | NW 7 | 4.83 | Fog/Mist | SCT004 BKN007 OVC015 | 10 | 10 | 100% | 9 | 76.02 | 0.0 | ||||||
| 07 | 01:15 | Calm | 6.44 | Fog/Mist | BKN009 BKN016 OVC032 | 11 | 11 | 100% | 76.05 | 0.0 | |||||||
| 07 | 00:55 | Calm | 11.27 | Overcast | SCT006 OVC032 | 11 | 11 | 100% | 76.05 | 0.0 | |||||||
| 07 | 00:35 | Calm | 0.40 | Fog | BKN002 BKN006 OVC032 | 11 | 11 | 100% | 76.07 | 0.0 | |||||||
| 07 | 00:15 | Calm | 9.66 | Fog/Mist | FEW007 OVC031 | 11 | 11 | 100% | 76.07 | 0.0 | |||||||
| 06 | 23:55 | Calm | 16.09 | Overcast | OVC030 | 11 | 11 | 100% | 76.07 | 0.0 | |||||||
| 06 | 23:35 | Calm | 16.09 | Overcast | FEW008 OVC028 | 11 | 11 | 100% | 76.05 | 0.0 | |||||||
| 06 | 23:15 | Calm | 1.61 | Fog/Mist | BKN002 BKN008 OVC028 | 11 | 11 | 100% | 76.02 | 0.0 | |||||||
| 06 | 22:55 | Calm | 0.24 | Fog | OVC002 | 11 | 11 | 100% | 76.05 | 0.0 | |||||||
| 06 | 22:35 | Calm | 1.61 | Fog/Mist | OVC003 | 11 | 11 | 100% | 76 | 0.0 | |||||||
| 06 | 22:15 | SE 6 | 2.41 | Light Rain | OVC003 | 11 | 11 | 100% | 76.07 | 0.0 | |||||||
| 06 | 21:55 | Calm | 0.24 | Fog | OVC003 | 11 | 11 | 100% | 76.07 | 0.0 | |||||||
| 06 | 21:35 | Calm | 0.40 | Fog | OVC003 | 11 | 11 | 100% | 76.1 | 0.0 | |||||||
| 06 | 21:15 | Calm | 2.01 | Fog/Mist | OVC003 | 11 | 11 | 100% | 76 | 0.0 | |||||||
| 06 | 20:55 | Calm | 0.80 | Fog | OVC003 | 11 | 11 | 100% | 76.02 | 0.0 | |||||||
| 06 | 20:35 | Calm | 2.01 | Fog/Mist | BKN002 BKN009 OVC027 | 11 | 11 | 100% | 75.92 | 0.0 | |||||||
| 06 | 20:15 | Calm | 0.40 | Fog | OVC003 | 11 | 11 | 100% | 76 | 0.0 | |||||||
| 06 | 19:55 | Calm | 16.09 | Overcast | BKN009 BKN022 OVC028 | 11 | 11 | 100% | 75.95 | 0.0 | |||||||
| 06 | 19:35 | Calm | 16.09 | Overcast | SCT005 BKN021 OVC028 | 11 | 11 | 100% | 75.97 | 0.0 | |||||||
| 06 | 19:15 | W 6 | 14.48 | Overcast | SCT003 BKN007 OVC019 | 11 | 11 | 100% | 75.97 | 0.0 | |||||||
| 06 | 18:55 | Calm | 8.05 | Fog/Mist | OVC004 | 11 | 11 | 100% | 75.97 | 0.0 | |||||||
| 06 | 18:35 | Calm | 16.09 | Overcast | BKN005 OVC009 | 11 | 11 | 100% | 75.97 | 0.0 | |||||||
| 06 | 18:15 | NW 7 | 14.48 | Mostly Cloudy | BKN004 BKN015 BKN024 | 12 | 12 | 100% | 75.95 | 0.0 | |||||||
| 06 | 17:55 | Calm | 4.83 | Fog/Mist | SCT005 BKN009 BKN025 | 12 | 12 | 100% | 75.92 | 0.0 | |||||||
| 06 | 17:35 | Calm | 4.83 | Fog/Mist | BKN004 BKN007 BKN011 | 12 | 12 | 100% | 75.95 | 0.0 | |||||||
| 06 | 17:15 | Calm | 2.82 | Light Drizzle | BKN003 OVC007 | 12 | 12 | 100% | 75.95 | 0.0 | |||||||
| 06 | 16:55 | Calm | 2.41 | Light Rain | BKN003 OVC007 | 12 | 12 | 100% | 75.95 | 0.0 | |||||||
| 06 | 16:35 | Calm | 2.82 | Light Drizzle | OVC004 | 12 | 12 | 100% | 75.92 | 0.0 | |||||||
| 06 | 16:15 | Vrbl 6 | 2.01 | Light Rain | BKN003 BKN007 | 12 | 12 | 100% | 75.92 | 0.0 | |||||||
| 06 | 15:55 | W 7 | 2.41 | Fog/Mist | BKN003 BKN008 | 12 | 12 | 100% | 75.92 | 0.0 | |||||||
| 06 | 15:35 | NW 6 | 2.82 | Fog/Mist | OVC004 | 12 | 12 | 100% | 75.92 | 0.0 | |||||||
| 06 | 15:15 | NW 7 | 4.83 | Fog/Mist | OVC004 | 12 | 12 | 100% | 75.87 | 0.0 | |||||||
| 06 | 14:55 | NW 11 | 14.48 | Overcast | OVC003 | 13 | 13 | 100% | 75.9 | 0.0 | |||||||
| 06 | 14:35 | NW 11 G 22 | 12.87 | Overcast | BKN003 OVC007 | 13 | 13 | 100% | 75.87 | 0.0 | |||||||
| 06 | 14:15 | NW 13 | 9.66 | Light Drizzle | BKN003 BKN007 | 13 | 13 | 100% | 75.87 | 0.0 | |||||||
| Date | Time (edt) | Wind (kph) | Vis. (km) | Weather | Sky Cond. | Air | Dwpt | Max. | Min. | Relative Humidity | Wind Chill (°C) | Heat Index (°C) | altimeter (cm) | sea level (mb) | 1 hr | 3 hr | 6 hr |
| 6 hour | |||||||||||||||||
| Temperature (ºC) | Pressure | Precipitation (cm) | |||||||||||||||